Startpagina
METAR-TAF:

METAR-TAF

Vliegvelden :

Internationale Luchthaven Baghdad

Bagdad, Irak

breedte: 33-15-45N, lengte: 44-14-04E, hoogte: 35 m

Actueel weer

Dit bericht is 47 minuten geleden gemaakt, om 15:00 UTC
Wind 4 kt uit het noordnoordwesten
Temperatuur 10°C
Vochtigheid 53%
Druk 1025 hPa
Zicht 10 km of meer
geen wolken onder 1500 m en geen cumulonimbus

METAR: ORBI 201500Z 33004KT CAVOK 10/01 Q1025 NOSIG

Tijdstip: 18:47 (15:47 UTC)

Verwachting

Dit bericht is 5 uur en het 47 minuten geleden gemaakt, om 10:00 UTC
Verwachting geldig van 20 om 12 UTC tot 21 om 12 UTC
Wind 6 kt uit het westnoordwesten
Zicht 10 km of meer
geen wolken onder 1500 m en geen cumulonimbus
Wijzigt naar
van 20 om 18 UTC tot 20 om 20 UTC
Zicht: 7000 m
Verspreide wolken op 5000 ft

TAF: ORBI 201000Z 2012/2112 30006KT CAVOK BECMG 2018/2020 7000 SCT050

Waarnemingen en weersverwachtingen van meer dan 4000 vliegvelden (METAR en TAF).

De beschikbare stations zijn de gele en rode punten op de kaart.

Ga met uw muis naar het station om de naam te zien.

Klik dan om waarnemingen en weersverwachtingen te zien.

kaart wijzigen: klik op de groene knoppen met een zwart kruis om in te zoomen, op de groene knop met een streepje om uit te zoomen of op de groene pijlen voor aangrenzende kaarten.


METAR-TAF: